Renee Davison — WDF9429 — position and weather

sailwx.info

Track history (hours):
 
Tides and Currents Weather Stations Pressure Air Temp Water Temp Dewpoint Dewpoint Depression Visibility Wind Speed Wind Dir Waves Ship Positions

Renee Davison

Owner: Genesis Marine, LLC, Houston, TX. More information available from US FCC via Universal Licensing System and Coast Guard Vessel Documentation Center.

Last reported at 2017-Dec-04 08:55 UTC. Time now 2017-Dec-12 06:26 UTC.
Position N 29°51' W 091°56'.

Length 27 m; draft 3.1 m.

Type: Towing. MMSI: 367505070.

Date/timePositionNaut miles runAvg speedWind from/ knotsBaromVisibWave heightAir tempDewpointWater temp
2017-Dec-04 08:55N 29°51' W 091°56'2 5.1
2017-Dec-04 08:31N 29°50' W 091°58'3 5.1
2017-Dec-04 08:00N 29°49' W 092°01'3 5.2
2017-Dec-04 07:27N 29°48' W 092°04'2 5.3
2017-Dec-04 07:01N 29°48' W 092°07'2 4.9
2017-Dec-04 06:31N 29°47' W 092°09'2 3.8
2017-Dec-04 06:01N 29°47' W 092°12'1 1.7
2017-Dec-04 05:31N 29°47' W 092°13'1 2.9
2017-Dec-04 05:00N 29°48' W 092°14'0 0.5
2017-Dec-04 04:31N 29°48' W 092°14'0 0.2
2017-Dec-04 04:01N 29°48' W 092°14'0 0.6
2017-Dec-04 03:31N 29°48' W 092°15'2 4.4
2017-Dec-04 03:01N 29°49' W 092°17'2 3.5
2017-Dec-04 02:30N 29°50' W 092°18'2 4.4
2017-Dec-04 02:00N 29°51' W 092°21'1 2.9
2017-Dec-04 01:30N 29°52' W 092°22'2 4.3
2017-Dec-04 01:01N 29°53' W 092°24'2 4.7
2017-Dec-04 00:29N 29°53' W 092°27'7 4.8
2017-Dec-03 23:02N 29°55' W 092°35'1 5.0
2017-Dec-03 22:48N 29°55' W 092°36'2 5.2
2017-Dec-03 22:30N 29°55' W 092°38'23 4.4
2017-Dec-03 17:14N 29°56' W 093°05'1 4.3
2017-Dec-03 16:58N 29°56' W 093°06'2 3.7
2017-Dec-03 16:31N 29°56' W 093°08'2 4.2
2017-Dec-03 16:01N 29°57' W 093°10'2 4.5
2017-Dec-03 15:31N 29°58' W 093°12'2 4.0
2017-Dec-03 15:01N 29°60' W 093°13'2 3.1
2017-Dec-03 14:25N 30°01' W 093°14'0 1.0
2017-Dec-03 13:58N 30°02' W 093°15'0 0.2
2017-Dec-03 13:16N 30°02' W 093°15'0 0.1
2017-Dec-03 12:57N 30°02' W 093°15'0 0.4
2017-Dec-03 12:29N 30°02' W 093°15'0 0.0
2017-Dec-03 12:01N 30°02' W 093°15'0 0.0
2017-Dec-03 11:31N 30°02' W 093°15'0 0.0
2017-Dec-03 10:54N 30°02' W 093°15'0 0.0
2017-Dec-03 10:31N 30°02' W 093°15'0 0.0
2017-Dec-03 10:01N 30°02' W 093°15'0 0.0
2017-Dec-03 09:30N 30°02' W 093°15'0 0.0
2017-Dec-03 08:57N 30°02' W 093°15'0 0.0
2017-Dec-03 08:30N 30°02' W 093°15'0 0.0
2017-Dec-03 08:01N 30°02' W 093°15'0 0.0
2017-Dec-03 07:31N 30°02' W 093°15'0 0.0
2017-Dec-03 06:51N 30°02' W 093°15'0 0.0
2017-Dec-03 06:31N 30°02' W 093°15'0 0.0
2017-Dec-03 05:55N 30°02' W 093°15'0 0.0
2017-Dec-03 05:30N 30°02' W 093°15'1 1.3
2017-Dec-03 04:55N 30°02' W 093°16'2 4.1
2017-Dec-03 04:31N 30°04' W 093°16'2 3.2
2017-Dec-03 03:55N 30°05' W 093°18'1 2.5
2017-Dec-03 03:31N 30°06' W 093°18'2 3.8
2017-Dec-03 02:54N 30°05' W 093°20'2 3.4
2017-Dec-03 02:25N 30°04' W 093°22'1 3.1
2017-Dec-03 02:01N 30°04' W 093°23'0 0.1
2017-Dec-03 01:30N 30°04' W 093°23'2 3.7
2017-Dec-03 01:01N 30°04' W 093°26'2 4.7
2017-Dec-03 00:31N 30°04' W 093°28'2 4.7
2017-Dec-03 00:00N 30°04' W 093°31'2 4.7
2017-Dec-02 23:31N 30°04' W 093°34'2 4.8
2017-Dec-02 23:01N 30°04' W 093°36'3 5.3
2017-Dec-02 22:31N 30°04' W 093°40'3 5.4
2017-Dec-02 22:01N 30°03' W 093°43'31 5.2
2017-Dec-02 16:10N 29°42' W 094°08'40 2.1
2017-Dec-01 20:50N 29°28' W 094°51'2 6.2
2017-Dec-01 20:31N 29°30' W 094°52'3 6.0
2017-Dec-01 20:00N 29°33' W 094°54'3 6.2
2017-Dec-01 19:31N 29°35' W 094°56'3 5.4
2017-Dec-01 19:01N 29°38' W 094°58'3 5.5
2017-Dec-01 18:30N 29°40' W 094°59'3 5.9
2017-Dec-01 18:01N 29°42' W 095°01'1 2.9
2017-Dec-01 17:30N 29°44' W 095°01'0 0.2
2017-Dec-01 16:57N 29°44' W 095°01'0 0.0
2017-Dec-01 16:03N 29°44' W 095°01'0 0.1
2017-Dec-01 15:59N 29°44' W 095°01'0 0.0
2017-Dec-01 15:25N 29°44' W 095°01'0 0.0
2017-Dec-01 14:51N 29°44' W 095°01'0 0.0
2017-Dec-01 14:29N 29°44' W 095°01'0 0.0
2017-Dec-01 13:50N 29°44' W 095°01'0 0.0
2017-Dec-01 13:23N 29°44' W 095°01'0 0.1
2017-Dec-01 13:00N 29°44' W 095°01'0 0.0
2017-Dec-01 09:58N 29°44' W 095°01'0 0.0
2017-Dec-01 07:23N 29°44' W 095°01'0 0.0
2017-Dec-01 07:00N 29°44' W 095°01'0 0.0
2017-Dec-01 06:29N 29°44' W 095°01'0 0.0
2017-Dec-01 05:58N 29°44' W 095°01'0 0.0
2017-Dec-01 05:04N 29°44' W 095°01'0 0.0
2017-Dec-01 04:34N 29°44' W 095°01'0 0.0
2017-Dec-01 04:27N 29°44' W 095°01'0 0.0
2017-Dec-01 03:38N 29°44' W 095°01'0 0.0
2017-Dec-01 03:27N 29°44' W 095°01'0 0.0
2017-Nov-30 22:14N 29°44' W 095°01'0 0.1
2017-Nov-30 21:59N 29°44' W 095°01'0 0.0
2017-Nov-30 21:28N 29°44' W 095°01'0 0.0
2017-Nov-30 20:22N 29°44' W 095°01'0 0.0
2017-Nov-30 19:19N 29°44' W 095°01'0 0.2
2017-Nov-30 18:59N 29°44' W 095°01'2 4.9
2017-Nov-30 18:30N 29°45' W 095°04'2 2.2
2017-Nov-30 17:32N 29°46' W 095°06'1 6.9
2017-Nov-30 17:25N 29°46' W 095°05'3 7.3
2017-Nov-30 17:00N 29°44' W 095°02'1 0.4
2017-Nov-30 15:15N 29°44' W 095°01'0 0.0
2017-Nov-30 14:48N 29°44' W 095°01'0 0.0
2017-Nov-30 14:29N 29°44' W 095°01'0 0.0
2017-Nov-30 14:00N 29°44' W 095°01'0 0.0
2017-Nov-30 13:30N 29°44' W 095°01'0 0.0
2017-Nov-30 12:59N 29°44' W 095°01'0 0.0
2017-Nov-30 12:30N 29°44' W 095°01'0 0.0
2017-Nov-30 12:01N 29°44' W 095°01'0 0.0
2017-Nov-30 11:30N 29°44' W 095°01'0 0.0
2017-Nov-30 10:59N 29°44' W 095°01'0 0.0
2017-Nov-30 10:30N 29°44' W 095°01'0 0.0
2017-Nov-30 09:59N 29°44' W 095°01'0 0.0
2017-Nov-30 09:31N 29°44' W 095°01'0 0.0
2017-Nov-30 09:00N 29°44' W 095°01'0 0.0
2017-Nov-30 08:30N 29°44' W 095°01'0 0.0
2017-Nov-30 08:00N 29°44' W 095°01'0 0.0
2017-Nov-30 07:30N 29°44' W 095°01'0 0.0
2017-Nov-30 07:00N 29°44' W 095°01'0 0.0
2017-Nov-30 06:30N 29°44' W 095°01'0 0.0
2017-Nov-30 06:00N 29°44' W 095°01'0 0.0
2017-Nov-30 05:21N 29°44' W 095°01'0 0.0
2017-Nov-30 05:00N 29°44' W 095°01'0 0.0
2017-Nov-30 04:23N 29°44' W 095°01'0 0.0
2017-Nov-30 03:59N 29°44' W 095°01'0 0.0
2017-Nov-30 03:29N 29°44' W 095°01'2 4.4
2017-Nov-30 02:58N 29°45' W 095°04'2 4.5
2017-Nov-30 02:25N 29°47' W 095°04'1 1.6
2017-Nov-30 02:00N 29°47' W 095°04'0 0.1
2017-Nov-30 01:30N 29°47' W 095°04'0 0.5
2017-Nov-30 00:59N 29°47' W 095°04'2 4.5
2017-Nov-30 00:30N 29°46' W 095°06'0 0.0
2017-Nov-28 14:06N 29°46' W 095°06'1 6.1
2017-Nov-28 14:00N 29°46' W 095°05'2 3.2
2017-Nov-28 13:25N 29°47' W 095°04'0 0.4
2017-Nov-28 13:00N 29°47' W 095°04'0 0.0
2017-Nov-28 12:28N 29°47' W 095°04'0 0.4
2017-Nov-28 12:00N 29°47' W 095°04'0 0.0
2017-Nov-28 11:30N 29°47' W 095°04'0 0.0
2017-Nov-28 11:00N 29°47' W 095°04'0 0.0
2017-Nov-28 10:30N 29°47' W 095°04'0 0.1
2017-Nov-28 09:51N 29°47' W 095°04'0 0.0
2017-Nov-28 09:28N 29°47' W 095°04'0 0.0
2017-Nov-28 08:51N 29°47' W 095°04'0 0.0
2017-Nov-28 08:28N 29°47' W 095°04'0 0.0
2017-Nov-28 07:33N 29°47' W 095°04'0 0.0
2017-Nov-28 07:23N 29°47' W 095°04'0 0.0
2017-Nov-28 06:58N 29°47' W 095°04'0 0.0
2017-Nov-28 05:57N 29°47' W 095°04'0 0.0
2017-Nov-28 05:29N 29°47' W 095°04'0 0.0
2017-Nov-28 04:30N 29°47' W 095°04'0 0.0
2017-Nov-28 04:01N 29°47' W 095°04'0 0.0
2017-Nov-28 03:28N 29°47' W 095°04'0 0.0
2017-Nov-28 02:59N 29°47' W 095°04'0 0.0
2017-Nov-28 02:30N 29°47' W 095°04'0 0.0
2017-Nov-27 21:14N 29°47' W 095°04'0 0.0
2017-Nov-27 14:51N 29°47' W 095°04'1 1.6
2017-Nov-27 14:19N 29°47' W 095°05'1 0.9
2017-Nov-27 12:37N 29°46' W 095°06'0 0.0
2017-Nov-27 12:04N 29°46' W 095°06'0 0.0
2017-Nov-27 12:00N 29°46' W 095°06'0 0.0
2017-Nov-27 11:28N 29°46' W 095°06'0 0.0
2017-Nov-27 10:58N 29°46' W 095°06'0 0.0
2017-Nov-27 07:50N 29°46' W 095°06'0 1.0
2017-Nov-27 07:30N 29°46' W 095°06'2 4.8
2017-Nov-27 07:01N 29°47' W 095°04'1 1.6
2017-Nov-27 06:30N 29°47' W 095°04'2 4.0
2017-Nov-27 06:00N 29°46' W 095°06'1 1.2
2017-Nov-27 05:27N 29°46' W 095°07'0 0.1
2017-Nov-27 05:00N 29°46' W 095°07'0 0.0
2017-Nov-27 04:30N 29°46' W 095°07'0 0.0
2017-Nov-27 04:00N 29°46' W 095°07'0 0.0
2017-Nov-27 03:30N 29°46' W 095°07'0 0.0
2017-Nov-27 03:01N 29°46' W 095°07'0 0.0
2017-Nov-27 02:30N 29°46' W 095°07'0 0.0
2017-Nov-27 02:00N 29°46' W 095°07'0 0.0
2017-Nov-27 01:30N 29°46' W 095°07'0 0.0
2017-Nov-27 01:01N 29°46' W 095°07'0 0.0
2017-Nov-27 00:29N 29°46' W 095°07'0 0.0
2017-Nov-27 00:00N 29°46' W 095°07'0 0.0
2017-Nov-26 23:28N 29°46' W 095°07'0 0.0
2017-Nov-26 22:57N 29°46' W 095°07'0 0.0
2017-Nov-26 21:58N 29°46' W 095°07'0 0.0
2017-Nov-26 21:29N 29°46' W 095°07'0 0.0
2017-Nov-26 21:00N 29°46' W 095°07'0 0.0
2017-Nov-26 20:30N 29°46' W 095°07'0 0.0
2017-Nov-26 19:25N 29°46' W 095°07'0 0.0
2017-Nov-26 18:14N 29°46' W 095°07'0 0.0
2017-Nov-26 17:56N 29°46' W 095°07'0 0.0
2017-Nov-26 17:23N 29°46' W 095°07'0 0.0
2017-Nov-26 16:39N 29°46' W 095°07'0 0.0
2017-Nov-26 16:25N 29°46' W 095°07'0 0.0
2017-Nov-26 15:57N 29°46' W 095°07'0 0.0
2017-Nov-26 14:26N 29°46' W 095°07'0 0.0
2017-Nov-26 12:05N 29°46' W 095°07'0 0.0
2017-Nov-26 11:54N 29°46' W 095°07'0 0.0
2017-Nov-26 11:19N 29°46' W 095°07'0 0.3
2017-Nov-26 10:48N 29°46' W 095°07'1 0.9
2017-Nov-26 09:34N 29°45' W 095°06'0 1.1
2017-Nov-26 09:29N 29°45' W 095°06'2 3.9
2017-Nov-26 09:00N 29°47' W 095°04'1 1.2
2017-Nov-26 08:30N 29°47' W 095°04'0 0.0
2017-Nov-26 07:57N 29°47' W 095°04'0 0.7
2017-Nov-26 07:26N 29°47' W 095°04'1 1.0
2017-Nov-26 06:52N 29°47' W 095°04'2 4.4
2017-Nov-26 06:29N 29°45' W 095°04'3 5.9
2017-Nov-26 05:59N 29°43' W 095°01'3 6.0
2017-Nov-26 05:31N 29°41' W 094°59'4 7.6
2017-Nov-26 05:01N 29°38' W 094°58'4 7.5
2017-Nov-26 04:30N 29°34' W 094°56'4 8.1
2017-Nov-26 04:00N 29°31' W 094°53'5 7.9
2017-Nov-26 03:23N 29°27' W 094°50'3 9.1
2017-Nov-26 03:01N 29°23' W 094°49'68 4.7
2017-Nov-25 12:35N 30°03' W 093°44'1 5.7
2017-Nov-25 12:29N 30°03' W 093°44'2 5.0
2017-Nov-25 12:00N 30°04' W 093°41'2 4.6
2017-Nov-25 11:30N 30°04' W 093°38'2 4.4
2017-Nov-25 11:01N 30°04' W 093°36'2 4.5
2017-Nov-25 10:30N 30°04' W 093°33'2 4.4
2017-Nov-25 10:01N 30°04' W 093°31'2 4.5
2017-Nov-25 09:31N 30°04' W 093°28'2 4.5
2017-Nov-25 09:01N 30°04' W 093°25'2 4.5
2017-Nov-25 08:30N 30°04' W 093°23'2 4.3
2017-Nov-25 08:01N 30°04' W 093°20'2 4.9
2017-Nov-25 07:30N 30°06' W 093°18'0 0.1
2017-Nov-25 07:01N 30°06' W 093°18'0 0.4
2017-Nov-25 06:30N 30°06' W 093°18'1 1.8
2017-Nov-25 06:00N 30°05' W 093°17'1 2.6
2017-Nov-25 05:30N 30°04' W 093°16'2 3.2
2017-Nov-25 05:00N 30°03' W 093°16'2 3.8
2017-Nov-25 04:31N 30°02' W 093°14'2 3.5
2017-Nov-25 04:01N 29°60' W 093°13'1 2.2
2017-Nov-25 03:30N 29°59' W 093°13'2 3.0
2017-Nov-25 03:00N 29°58' W 093°11'2 4.6
2017-Nov-25 02:30N 29°56' W 093°10'2 4.0
2017-Nov-25 02:00N 29°56' W 093°07'2 4.1
2017-Nov-25 01:30N 29°56' W 093°05'2 4.5
2017-Nov-25 01:00N 29°56' W 093°02'2 4.4
2017-Nov-25 00:29N 29°56' W 092°60'17 1.8
2017-Nov-24 15:02N 29°56' W 092°40'0 0.9
2017-Nov-24 15:00N 29°56' W 092°40'13 2.5
2017-Nov-24 09:37N 29°53' W 092°25'2 3.4
2017-Nov-24 09:03N 29°52' W 092°23'0 4.1
2017-Nov-24 09:00N 29°52' W 092°22'  
Track history (hours):
 
Tides and Currents Weather Stations Pressure Air Temp Water Temp Dewpoint Dewpoint Depression Visibility Wind Speed Wind Dir Waves Ship Positions

Renee Davison

Owner: Genesis Marine, LLC, Houston, TX. More information available from US FCC via Universal Licensing System and Coast Guard Vessel Documentation Center.

Last reported at 2017-Dec-04 08:55 UTC. Time now 2017-Dec-12 06:26 UTC.
Position N 29°51' W 091°56'.

Length 27 m; draft 3.1 m.

Type: Towing. MMSI: 367505070.

Date/timePositionNaut miles runAvg speedWind from/ knotsBaromVisibWave heightAir tempDewpointWater temp
2017-Dec-04 08:55N 29°51' W 091°56'2 5.1
2017-Dec-04 08:31N 29°50' W 091°58'3 5.1
2017-Dec-04 08:00N 29°49' W 092°01'3 5.2
2017-Dec-04 07:27N 29°48' W 092°04'2 5.3
2017-Dec-04 07:01N 29°48' W 092°07'2 4.9
2017-Dec-04 06:31N 29°47' W 092°09'2 3.8
2017-Dec-04 06:01N 29°47' W 092°12'1 1.7
2017-Dec-04 05:31N 29°47' W 092°13'1 2.9
2017-Dec-04 05:00N 29°48' W 092°14'0 0.5
2017-Dec-04 04:31N 29°48' W 092°14'0 0.2
2017-Dec-04 04:01N 29°48' W 092°14'0 0.6
2017-Dec-04 03:31N 29°48' W 092°15'2 4.4
2017-Dec-04 03:01N 29°49' W 092°17'2 3.5
2017-Dec-04 02:30N 29°50' W 092°18'2 4.4
2017-Dec-04 02:00N 29°51' W 092°21'1 2.9
2017-Dec-04 01:30N 29°52' W 092°22'2 4.3
2017-Dec-04 01:01N 29°53' W 092°24'2 4.7
2017-Dec-04 00:29N 29°53' W 092°27'7 4.8
2017-Dec-03 23:02N 29°55' W 092°35'1 5.0
2017-Dec-03 22:48N 29°55' W 092°36'2 5.2
2017-Dec-03 22:30N 29°55' W 092°38'23 4.4
2017-Dec-03 17:14N 29°56' W 093°05'1 4.3
2017-Dec-03 16:58N 29°56' W 093°06'2 3.7
2017-Dec-03 16:31N 29°56' W 093°08'2 4.2
2017-Dec-03 16:01N 29°57' W 093°10'2 4.5
2017-Dec-03 15:31N 29°58' W 093°12'2 4.0
2017-Dec-03 15:01N 29°60' W 093°13'2 3.1
2017-Dec-03 14:25N 30°01' W 093°14'0 1.0
2017-Dec-03 13:58N 30°02' W 093°15'0 0.2
2017-Dec-03 13:16N 30°02' W 093°15'0 0.1
2017-Dec-03 12:57N 30°02' W 093°15'0 0.4
2017-Dec-03 12:29N 30°02' W 093°15'0 0.0
2017-Dec-03 12:01N 30°02' W 093°15'0 0.0
2017-Dec-03 11:31N 30°02' W 093°15'0 0.0
2017-Dec-03 10:54N 30°02' W 093°15'0 0.0
2017-Dec-03 10:31N 30°02' W 093°15'0 0.0
2017-Dec-03 10:01N 30°02' W 093°15'0 0.0
2017-Dec-03 09:30N 30°02' W 093°15'0 0.0
2017-Dec-03 08:57N 30°02' W 093°15'0 0.0
2017-Dec-03 08:30N 30°02' W 093°15'0 0.0
2017-Dec-03 08:01N 30°02' W 093°15'0 0.0
2017-Dec-03 07:31N 30°02' W 093°15'0 0.0
2017-Dec-03 06:51N 30°02' W 093°15'0 0.0
2017-Dec-03 06:31N 30°02' W 093°15'0 0.0
2017-Dec-03 05:55N 30°02' W 093°15'0 0.0
2017-Dec-03 05:30N 30°02' W 093°15'1 1.3
2017-Dec-03 04:55N 30°02' W 093°16'2 4.1
2017-Dec-03 04:31N 30°04' W 093°16'2 3.2
2017-Dec-03 03:55N 30°05' W 093°18'1 2.5
2017-Dec-03 03:31N 30°06' W 093°18'2 3.8
2017-Dec-03 02:54N 30°05' W 093°20'2 3.4
2017-Dec-03 02:25N 30°04' W 093°22'1 3.1
2017-Dec-03 02:01N 30°04' W 093°23'0 0.1
2017-Dec-03 01:30N 30°04' W 093°23'2 3.7
2017-Dec-03 01:01N 30°04' W 093°26'2 4.7
2017-Dec-03 00:31N 30°04' W 093°28'2 4.7
2017-Dec-03 00:00N 30°04' W 093°31'2 4.7
2017-Dec-02 23:31N 30°04' W 093°34'2 4.8
2017-Dec-02 23:01N 30°04' W 093°36'3 5.3
2017-Dec-02 22:31N 30°04' W 093°40'3 5.4
2017-Dec-02 22:01N 30°03' W 093°43'31 5.2
2017-Dec-02 16:10N 29°42' W 094°08'40 2.1
2017-Dec-01 20:50N 29°28' W 094°51'2 6.2
2017-Dec-01 20:31N 29°30' W 094°52'3 6.0
2017-Dec-01 20:00N 29°33' W 094°54'3 6.2
2017-Dec-01 19:31N 29°35' W 094°56'3 5.4
2017-Dec-01 19:01N 29°38' W 094°58'3 5.5
2017-Dec-01 18:30N 29°40' W 094°59'3 5.9
2017-Dec-01 18:01N 29°42' W 095°01'1 2.9
2017-Dec-01 17:30N 29°44' W 095°01'0 0.2
2017-Dec-01 16:57N 29°44' W 095°01'0 0.0
2017-Dec-01 16:03N 29°44' W 095°01'0 0.1
2017-Dec-01 15:59N 29°44' W 095°01'0 0.0
2017-Dec-01 15:25N 29°44' W 095°01'0 0.0
2017-Dec-01 14:51N 29°44' W 095°01'0 0.0
2017-Dec-01 14:29N 29°44' W 095°01'0 0.0
2017-Dec-01 13:50N 29°44' W 095°01'0 0.0
2017-Dec-01 13:23N 29°44' W 095°01'0 0.1
2017-Dec-01 13:00N 29°44' W 095°01'0 0.0
2017-Dec-01 09:58N 29°44' W 095°01'0 0.0
2017-Dec-01 07:23N 29°44' W 095°01'0 0.0
2017-Dec-01 07:00N 29°44' W 095°01'0 0.0
2017-Dec-01 06:29N 29°44' W 095°01'0 0.0
2017-Dec-01 05:58N 29°44' W 095°01'0 0.0
2017-Dec-01 05:04N 29°44' W 095°01'0 0.0
2017-Dec-01 04:34N 29°44' W 095°01'0 0.0
2017-Dec-01 04:27N 29°44' W 095°01'0 0.0
2017-Dec-01 03:38N 29°44' W 095°01'0 0.0
2017-Dec-01 03:27N 29°44' W 095°01'0 0.0
2017-Nov-30 22:14N 29°44' W 095°01'0 0.1
2017-Nov-30 21:59N 29°44' W 095°01'0 0.0
2017-Nov-30 21:28N 29°44' W 095°01'0 0.0
2017-Nov-30 20:22N 29°44' W 095°01'0 0.0
2017-Nov-30 19:19N 29°44' W 095°01'0 0.2
2017-Nov-30 18:59N 29°44' W 095°01'2 4.9
2017-Nov-30 18:30N 29°45' W 095°04'2 2.2
2017-Nov-30 17:32N 29°46' W 095°06'1 6.9
2017-Nov-30 17:25N 29°46' W 095°05'3 7.3
2017-Nov-30 17:00N 29°44' W 095°02'1 0.4
2017-Nov-30 15:15N 29°44' W 095°01'0 0.0
2017-Nov-30 14:48N 29°44' W 095°01'0 0.0
2017-Nov-30 14:29N 29°44' W 095°01'0 0.0
2017-Nov-30 14:00N 29°44' W 095°01'0 0.0
2017-Nov-30 13:30N 29°44' W 095°01'0 0.0
2017-Nov-30 12:59N 29°44' W 095°01'0 0.0
2017-Nov-30 12:30N 29°44' W 095°01'0 0.0
2017-Nov-30 12:01N 29°44' W 095°01'0 0.0
2017-Nov-30 11:30N 29°44' W 095°01'0 0.0
2017-Nov-30 10:59N 29°44' W 095°01'0 0.0
2017-Nov-30 10:30N 29°44' W 095°01'0 0.0
2017-Nov-30 09:59N 29°44' W 095°01'0 0.0
2017-Nov-30 09:31N 29°44' W 095°01'0 0.0
2017-Nov-30 09:00N 29°44' W 095°01'0 0.0
2017-Nov-30 08:30N 29°44' W 095°01'0 0.0
2017-Nov-30 08:00N 29°44' W 095°01'0 0.0
2017-Nov-30 07:30N 29°44' W 095°01'0 0.0
2017-Nov-30 07:00N 29°44' W 095°01'0 0.0
2017-Nov-30 06:30N 29°44' W 095°01'0 0.0
2017-Nov-30 06:00N 29°44' W 095°01'0 0.0
2017-Nov-30 05:21N 29°44' W 095°01'0 0.0
2017-Nov-30 05:00N 29°44' W 095°01'0 0.0
2017-Nov-30 04:23N 29°44' W 095°01'0 0.0
2017-Nov-30 03:59N 29°44' W 095°01'0 0.0
2017-Nov-30 03:29N 29°44' W 095°01'2 4.4
2017-Nov-30 02:58N 29°45' W 095°04'2 4.5
2017-Nov-30 02:25N 29°47' W 095°04'1 1.6
2017-Nov-30 02:00N 29°47' W 095°04'0 0.1
2017-Nov-30 01:30N 29°47' W 095°04'0 0.5
2017-Nov-30 00:59N 29°47' W 095°04'2 4.5
2017-Nov-30 00:30N 29°46' W 095°06'0 0.0
2017-Nov-28 14:06N 29°46' W 095°06'1 6.1
2017-Nov-28 14:00N 29°46' W 095°05'2 3.2
2017-Nov-28 13:25N 29°47' W 095°04'0 0.4
2017-Nov-28 13:00N 29°47' W 095°04'0 0.0
2017-Nov-28 12:28N 29°47' W 095°04'0 0.4
2017-Nov-28 12:00N 29°47' W 095°04'0 0.0
2017-Nov-28 11:30N 29°47' W 095°04'0 0.0
2017-Nov-28 11:00N 29°47' W 095°04'0 0.0
2017-Nov-28 10:30N 29°47' W 095°04'0 0.1
2017-Nov-28 09:51N 29°47' W 095°04'0 0.0
2017-Nov-28 09:28N 29°47' W 095°04'0 0.0
2017-Nov-28 08:51N 29°47' W 095°04'0 0.0
2017-Nov-28 08:28N 29°47' W 095°04'0 0.0
2017-Nov-28 07:33N 29°47' W 095°04'0 0.0
2017-Nov-28 07:23N 29°47' W 095°04'0 0.0
2017-Nov-28 06:58N 29°47' W 095°04'0 0.0
2017-Nov-28 05:57N 29°47' W 095°04'0 0.0
2017-Nov-28 05:29N 29°47' W 095°04'0 0.0
2017-Nov-28 04:30N 29°47' W 095°04'0 0.0
2017-Nov-28 04:01N 29°47' W 095°04'0 0.0
2017-Nov-28 03:28N 29°47' W 095°04'0 0.0
2017-Nov-28 02:59N 29°47' W 095°04'0 0.0
2017-Nov-28 02:30N 29°47' W 095°04'0 0.0
2017-Nov-27 21:14N 29°47' W 095°04'0 0.0
2017-Nov-27 14:51N 29°47' W 095°04'1 1.6
2017-Nov-27 14:19N 29°47' W 095°05'1 0.9
2017-Nov-27 12:37N 29°46' W 095°06'0 0.0
2017-Nov-27 12:04N 29°46' W 095°06'0 0.0
2017-Nov-27 12:00N 29°46' W 095°06'0 0.0
2017-Nov-27 11:28N 29°46' W 095°06'0 0.0
2017-Nov-27 10:58N 29°46' W 095°06'0 0.0
2017-Nov-27 07:50N 29°46' W 095°06'0 1.0
2017-Nov-27 07:30N 29°46' W 095°06'2 4.8
2017-Nov-27 07:01N 29°47' W 095°04'1 1.6
2017-Nov-27 06:30N 29°47' W 095°04'2 4.0
2017-Nov-27 06:00N 29°46' W 095°06'1 1.2
2017-Nov-27 05:27N 29°46' W 095°07'0 0.1
2017-Nov-27 05:00N 29°46' W 095°07'0 0.0
2017-Nov-27 04:30N 29°46' W 095°07'0 0.0
2017-Nov-27 04:00N 29°46' W 095°07'0 0.0
2017-Nov-27 03:30N 29°46' W 095°07'0 0.0
2017-Nov-27 03:01N 29°46' W 095°07'0 0.0
2017-Nov-27 02:30N 29°46' W 095°07'0 0.0
2017-Nov-27 02:00N 29°46' W 095°07'0 0.0
2017-Nov-27 01:30N 29°46' W 095°07'0 0.0
2017-Nov-27 01:01N 29°46' W 095°07'0 0.0
2017-Nov-27 00:29N 29°46' W 095°07'0 0.0
2017-Nov-27 00:00N 29°46' W 095°07'0 0.0
2017-Nov-26 23:28N 29°46' W 095°07'0 0.0
2017-Nov-26 22:57N 29°46' W 095°07'0 0.0
2017-Nov-26 21:58N 29°46' W 095°07'0 0.0
2017-Nov-26 21:29N 29°46' W 095°07'0 0.0
2017-Nov-26 21:00N 29°46' W 095°07'0 0.0
2017-Nov-26 20:30N 29°46' W 095°07'0 0.0
2017-Nov-26 19:25N 29°46' W 095°07'0 0.0
2017-Nov-26 18:14N 29°46' W 095°07'0 0.0
2017-Nov-26 17:56N 29°46' W 095°07'0 0.0
2017-Nov-26 17:23N 29°46' W 095°07'0 0.0
2017-Nov-26 16:39N 29°46' W 095°07'0 0.0
2017-Nov-26 16:25N 29°46' W 095°07'0 0.0
2017-Nov-26 15:57N 29°46' W 095°07'0 0.0
2017-Nov-26 14:26N 29°46' W 095°07'0 0.0
2017-Nov-26 12:05N 29°46' W 095°07'0 0.0
2017-Nov-26 11:54N 29°46' W 095°07'0 0.0
2017-Nov-26 11:19N 29°46' W 095°07'0 0.3
2017-Nov-26 10:48N 29°46' W 095°07'1 0.9
2017-Nov-26 09:34N 29°45' W 095°06'0 1.1
2017-Nov-26 09:29N 29°45' W 095°06'2 3.9
2017-Nov-26 09:00N 29°47' W 095°04'1 1.2
2017-Nov-26 08:30N 29°47' W 095°04'0 0.0
2017-Nov-26 07:57N 29°47' W 095°04'0 0.7
2017-Nov-26 07:26N 29°47' W 095°04'1 1.0
2017-Nov-26 06:52N 29°47' W 095°04'2 4.4
2017-Nov-26 06:29N 29°45' W 095°04'3 5.9
2017-Nov-26 05:59N 29°43' W 095°01'3 6.0
2017-Nov-26 05:31N 29°41' W 094°59'4 7.6
2017-Nov-26 05:01N 29°38' W 094°58'4 7.5
2017-Nov-26 04:30N 29°34' W 094°56'4 8.1
2017-Nov-26 04:00N 29°31' W 094°53'5 7.9
2017-Nov-26 03:23N 29°27' W 094°50'3 9.1
2017-Nov-26 03:01N 29°23' W 094°49'68 4.7
2017-Nov-25 12:35N 30°03' W 093°44'1 5.7
2017-Nov-25 12:29N 30°03' W 093°44'2 5.0
2017-Nov-25 12:00N 30°04' W 093°41'2 4.6
2017-Nov-25 11:30N 30°04' W 093°38'2 4.4
2017-Nov-25 11:01N 30°04' W 093°36'2 4.5
2017-Nov-25 10:30N 30°04' W 093°33'2 4.4
2017-Nov-25 10:01N 30°04' W 093°31'2 4.5
2017-Nov-25 09:31N 30°04' W 093°28'2 4.5
2017-Nov-25 09:01N 30°04' W 093°25'2 4.5
2017-Nov-25 08:30N 30°04' W 093°23'2 4.3
2017-Nov-25 08:01N 30°04' W 093°20'2 4.9
2017-Nov-25 07:30N 30°06' W 093°18'0 0.1
2017-Nov-25 07:01N 30°06' W 093°18'0 0.4
2017-Nov-25 06:30N 30°06' W 093°18'1 1.8
2017-Nov-25 06:00N 30°05' W 093°17'1 2.6
2017-Nov-25 05:30N 30°04' W 093°16'2 3.2
2017-Nov-25 05:00N 30°03' W 093°16'2 3.8
2017-Nov-25 04:31N 30°02' W 093°14'2 3.5
2017-Nov-25 04:01N 29°60' W 093°13'1 2.2
2017-Nov-25 03:30N 29°59' W 093°13'2 3.0
2017-Nov-25 03:00N 29°58' W 093°11'2 4.6
2017-Nov-25 02:30N 29°56' W 093°10'2 4.0
2017-Nov-25 02:00N 29°56' W 093°07'2 4.1
2017-Nov-25 01:30N 29°56' W 093°05'2 4.5
2017-Nov-25 01:00N 29°56' W 093°02'2 4.4
2017-Nov-25 00:29N 29°56' W 092°60'17 1.8
2017-Nov-24 15:02N 29°56' W 092°40'0 0.9
2017-Nov-24 15:00N 29°56' W 092°40'13 2.5
2017-Nov-24 09:37N 29°53' W 092°25'2 3.4
2017-Nov-24 09:03N 29°52' W 092°23'0 4.1
2017-Nov-24 09:00N 29°52' W 092°22'  

Dump ship's entire track history